sensor_id;sensor_type;location;lat;lon;timestamp;pressure;altitude;pressure_sealevel;temperature;humidity
62510;BME280;48558;48.242;11.654;2022-08-03T00:00:21;96349.47;;;14.97;100.00
62510;BME280;48558;48.242;11.654;2022-08-03T00:05:27;96347.41;;;14.87;100.00
62510;BME280;48558;48.242;11.654;2022-08-03T00:10:30;96348.88;;;14.71;100.00
62510;BME280;48558;48.242;11.654;2022-08-03T00:15:33;96339.50;;;14.63;100.00
62510;BME280;48558;48.242;11.654;2022-08-03T00:20:37;96341.78;;;14.65;100.00
62510;BME280;48558;48.242;11.654;2022-08-03T00:25:42;96337.94;;;14.62;100.00
62510;BME280;48558;48.242;11.654;2022-08-03T00:30:47;96340.66;;;14.56;100.00
62510;BME280;48558;48.242;11.654;2022-08-03T00:35:51;96341.69;;;14.59;100.00
62510;BME280;48558;48.242;11.654;2022-08-03T00:40:54;96346.97;;;14.46;100.00
62510;BME280;48558;48.242;11.654;2022-08-03T00:45:58;96340.16;;;14.47;100.00
62510;BME280;48558;48.242;11.654;2022-08-03T00:51:02;96343.19;;;14.49;100.00
62510;BME280;48558;48.242;11.654;2022-08-03T00:56:05;96345.19;;;14.43;100.00
62510;BME280;48558;48.242;11.654;2022-08-03T01:01:09;96332.72;;;14.33;100.00
62510;BME280;48558;48.242;11.654;2022-08-03T01:06:16;96338.22;;;14.22;100.00
62510;BME280;48558;48.242;11.654;2022-08-03T01:11:53;96346.56;;;14.16;100.00
62510;BME280;48558;48.242;11.654;2022-08-03T01:17:23;96335.13;;;14.09;100.00
62510;BME280;48558;48.242;11.654;2022-08-03T01:32:55;96328.13;;;13.87;100.00
62510;BME280;48558;48.242;11.654;2022-08-03T01:38:11;96319.59;;;13.97;100.00
62510;BME280;48558;48.242;11.654;2022-08-03T01:43:18;96327.16;;;13.91;100.00
62510;BME280;48558;48.242;11.654;2022-08-03T01:48:42;96317.44;;;13.80;100.00
62510;BME280;48558;48.242;11.654;2022-08-03T01:53:48;96329.56;;;13.77;100.00
62510;BME280;48558;48.242;11.654;2022-08-03T01:58:53;96327.56;;;13.78;100.00
62510;BME280;48558;48.242;11.654;2022-08-03T02:03:58;96316.84;;;13.65;100.00
62510;BME280;48558;48.242;11.654;2022-08-03T02:09:05;96318.53;;;13.57;100.00
62510;BME280;48558;48.242;11.654;2022-08-03T02:14:11;96326.16;;;13.57;100.00
62510;BME280;48558;48.242;11.654;2022-08-03T02:19:19;96331.63;;;13.51;100.00
62510;BME280;48558;48.242;11.654;2022-08-03T02:24:23;96331.13;;;13.53;100.00
62510;BME280;48558;48.242;11.654;2022-08-03T02:29:30;96331.09;;;13.47;100.00
62510;BME280;48558;48.242;11.654;2022-08-03T02:34:44;96325.00;;;13.43;100.00
62510;BME280;48558;48.242;11.654;2022-08-03T02:39:49;96331.56;;;13.46;100.00
62510;BME280;48558;48.242;11.654;2022-08-03T02:44:56;96331.75;;;13.37;100.00
62510;BME280;48558;48.242;11.654;2022-08-03T02:50:01;96324.88;;;13.32;100.00
62510;BME280;48558;48.242;11.654;2022-08-03T02:55:06;96319.53;;;13.29;100.00
62510;BME280;48558;48.242;11.654;2022-08-03T03:00:11;96319.53;;;13.29;100.00
62510;BME280;48558;48.242;11.654;2022-08-03T03:05:29;96329.59;;;13.21;100.00
62510;BME280;48558;48.242;11.654;2022-08-03T03:10:54;96317.16;;;13.16;100.00
62510;BME280;48558;48.242;11.654;2022-08-03T03:15:59;96318.16;;;13.18;100.00
62510;BME280;48558;48.242;11.654;2022-08-03T03:21:09;96316.50;;;13.01;100.00
62510;BME280;48558;48.242;11.654;2022-08-03T03:26:13;96313.28;;;13.08;100.00
62510;BME280;48558;48.242;11.654;2022-08-03T03:31:17;96318.13;;;13.13;100.00
62510;BME280;48558;48.242;11.654;2022-08-03T03:36:20;96324.91;;;13.06;100.00
62510;BME280;48558;48.242;11.654;2022-08-03T03:41:25;96324.84;;;13.01;100.00
62510;BME280;48558;48.242;11.654;2022-08-03T03:46:34;96326.81;;;12.95;100.00
62510;BME280;48558;48.242;11.654;2022-08-03T03:51:39;96331.00;;;12.85;100.00
62510;BME280;48558;48.242;11.654;2022-08-03T03:56:42;96327.94;;;12.83;100.00
62510;BME280;48558;48.242;11.654;2022-08-03T04:01:46;96336.28;;;12.83;100.00
62510;BME280;48558;48.242;11.654;2022-08-03T04:07:00;96340.34;;;12.82;100.00
62510;BME280;48558;48.242;11.654;2022-08-03T04:12:23;96338.38;;;12.88;100.00
62510;BME280;48558;48.242;11.654;2022-08-03T04:17:29;96334.81;;;12.87;100.00
62510;BME280;48558;48.242;11.654;2022-08-03T04:22:34;96330.38;;;12.95;100.00
62510;BME280;48558;48.242;11.654;2022-08-03T04:27:39;96333.44;;;13.03;100.00
62510;BME280;48558;48.242;11.654;2022-08-03T04:32:46;96345.31;;;12.98;100.00
62510;BME280;48558;48.242;11.654;2022-08-03T04:37:56;96344.44;;;13.12;100.00
62510;BME280;48558;48.242;11.654;2022-08-03T04:43:03;96344.53;;;13.23;100.00
62510;BME280;48558;48.242;11.654;2022-08-03T04:48:07;96350.66;;;13.27;100.00
62510;BME280;48558;48.242;11.654;2022-08-03T04:53:11;96349.75;;;13.41;100.00
62510;BME280;48558;48.242;11.654;2022-08-03T04:58:14;96358.06;;;13.61;100.00
62510;BME280;48558;48.242;11.654;2022-08-03T05:03:17;96359.69;;;13.73;100.00
62510;BME280;48558;48.242;11.654;2022-08-03T05:08:25;96365.69;;;13.98;100.00
62510;BME280;48558;48.242;11.654;2022-08-03T05:13:30;96366.38;;;14.24;100.00
62510;BME280;48558;48.242;11.654;2022-08-03T05:18:33;96365.25;;;14.47;100.00
62510;BME280;48558;48.242;11.654;2022-08-03T05:23:37;96366.41;;;14.72;100.00
62510;BME280;48558;48.242;11.654;2022-08-03T05:28:41;96361.88;;;14.85;100.00
62510;BME280;48558;48.242;11.654;2022-08-03T05:33:52;96368.78;;;15.06;100.00
62510;BME280;48558;48.242;11.654;2022-08-03T05:38:57;96367.84;;;15.31;100.00
62510;BME280;48558;48.242;11.654;2022-08-03T05:44:04;96378.56;;;15.61;100.00
62510;BME280;48558;48.242;11.654;2022-08-03T05:49:07;96376.81;;;15.91;100.00
62510;BME280;48558;48.242;11.654;2022-08-03T05:54:10;96368.09;;;16.33;100.00
62510;BME280;48558;48.242;11.654;2022-08-03T05:59:13;96375.72;;;16.44;100.00
62510;BME280;48558;48.242;11.654;2022-08-03T06:04:36;96369.06;;;16.63;100.00
62510;BME280;48558;48.242;11.654;2022-08-03T06:09:40;96376.31;;;17.00;100.00
62510;BME280;48558;48.242;11.654;2022-08-03T06:15:04;96376.66;;;17.31;100.00
62510;BME280;48558;48.242;11.654;2022-08-03T06:20:13;96383.59;;;17.66;100.00
62510;BME280;48558;48.242;11.654;2022-08-03T06:25:19;96371.16;;;17.91;100.00
62510;BME280;48558;48.242;11.654;2022-08-03T06:30:22;96390.28;;;18.22;100.00
62510;BME280;48558;48.242;11.654;2022-08-03T06:35:25;96391.41;;;18.38;100.00
62510;BME280;48558;48.242;11.654;2022-08-03T06:40:29;96394.75;;;18.60;100.00
62510;BME280;48558;48.242;11.654;2022-08-03T06:45:33;96391.06;;;18.71;100.00
62510;BME280;48558;48.242;11.654;2022-08-03T06:50:39;96401.59;;;18.89;96.72
62510;BME280;48558;48.242;11.654;2022-08-03T06:55:49;96386.75;;;19.13;90.92
62510;BME280;48558;48.242;11.654;2022-08-03T07:00:56;96390.34;;;19.50;88.54
62510;BME280;48558;48.242;11.654;2022-08-03T07:05:59;96396.19;;;19.71;87.41
62510;BME280;48558;48.242;11.654;2022-08-03T07:11:07;96384.69;;;19.88;88.57
62510;BME280;48558;48.242;11.654;2022-08-03T07:16:09;96389.59;;;20.32;84.20
62510;BME280;48558;48.242;11.654;2022-08-03T07:21:13;96391.56;;;20.50;82.71
62510;BME280;48558;48.242;11.654;2022-08-03T07:26:19;96390.53;;;20.79;82.40
62510;BME280;48558;48.242;11.654;2022-08-03T07:31:22;96383.25;;;20.84;79.18
62510;BME280;48558;48.242;11.654;2022-08-03T07:36:25;96381.03;;;21.29;79.47
62510;BME280;48558;48.242;11.654;2022-08-03T07:41:28;96380.97;;;21.69;76.04
62510;BME280;48558;48.242;11.654;2022-08-03T07:46:31;96378.38;;;22.12;74.51
62510;BME280;48558;48.242;11.654;2022-08-03T07:51:35;96383.56;;;22.21;78.26
62510;BME280;48558;48.242;11.654;2022-08-03T07:56:40;96372.59;;;22.59;75.47
62510;BME280;48558;48.242;11.654;2022-08-03T08:01:43;96369.06;;;22.94;74.72
62510;BME280;48558;48.242;11.654;2022-08-03T08:06:47;96373.75;;;23.27;70.67
62510;BME280;48558;48.242;11.654;2022-08-03T08:11:51;96364.69;;;23.64;64.63
62510;BME280;48558;48.242;11.654;2022-08-03T08:16:54;96373.31;;;24.40;65.19
62510;BME280;48558;48.242;11.654;2022-08-03T08:21:59;96360.97;;;25.05;58.34
62510;BME280;48558;48.242;11.654;2022-08-03T08:27:04;96374.78;;;25.96;57.38
62510;BME280;48558;48.242;11.654;2022-08-03T08:32:07;96357.94;;;26.23;56.37
62510;BME280;48558;48.242;11.654;2022-08-03T08:37:10;96367.56;;;26.94;52.26
62510;BME280;48558;48.242;11.654;2022-08-03T08:42:14;96375.56;;;27.30;55.75
62510;BME280;48558;48.242;11.654;2022-08-03T08:47:18;96366.31;;;28.26;49.77
62510;BME280;48558;48.242;11.654;2022-08-03T08:52:26;96362.28;;;28.03;51.43
62510;BME280;48558;48.242;11.654;2022-08-03T08:57:35;96367.53;;;28.69;47.67
62510;BME280;48558;48.242;11.654;2022-08-03T09:02:46;96364.94;;;29.28;45.34
62510;BME280;48558;48.242;11.654;2022-08-03T09:07:50;96362.81;;;29.39;46.28
62510;BME280;48558;48.242;11.654;2022-08-03T09:12:54;96358.91;;;29.05;44.48
62510;BME280;48558;48.242;11.654;2022-08-03T09:17:59;96350.63;;;29.38;44.48
62510;BME280;48558;48.242;11.654;2022-08-03T09:23:07;96362.63;;;29.94;42.21
62510;BME280;48558;48.242;11.654;2022-08-03T09:28:35;96350.03;;;30.68;38.75
62510;BME280;48558;48.242;11.654;2022-08-03T09:34:09;96350.50;;;29.46;40.54
62510;BME280;48558;48.242;11.654;2022-08-03T09:39:24;96337.97;;;30.70;41.37
62510;BME280;48558;48.242;11.654;2022-08-03T09:44:45;96349.69;;;30.74;41.67
62510;BME280;48558;48.242;11.654;2022-08-03T09:50:00;96343.22;;;30.42;41.68
62510;BME280;48558;48.242;11.654;2022-08-03T09:55:08;96343.78;;;31.12;40.13
62510;BME280;48558;48.242;11.654;2022-08-03T10:00:31;96351.97;;;29.85;39.99
62510;BME280;48558;48.242;11.654;2022-08-03T10:05:35;96348.88;;;30.83;38.57
62510;BME280;48558;48.242;11.654;2022-08-03T10:10:45;96326.53;;;29.98;43.41
62510;BME280;48558;48.242;11.654;2022-08-03T10:15:52;96332.94;;;30.18;38.57
62510;BME280;48558;48.242;11.654;2022-08-03T10:21:17;96333.88;;;30.42;38.38
62510;BME280;48558;48.242;11.654;2022-08-03T10:26:22;96333.47;;;31.51;42.01
62510;BME280;48558;48.242;11.654;2022-08-03T10:31:32;96324.34;;;32.20;38.08
62510;BME280;48558;48.242;11.654;2022-08-03T10:36:37;96327.22;;;32.55;33.59
62510;BME280;48558;48.242;11.654;2022-08-03T10:41:42;96319.34;;;31.32;34.62
62510;BME280;48558;48.242;11.654;2022-08-03T10:46:49;96321.34;;;32.30;34.20
62510;BME280;48558;48.242;11.654;2022-08-03T10:51:53;96324.13;;;32.62;36.78
62510;BME280;48558;48.242;11.654;2022-08-03T10:56:57;96306.63;;;32.58;35.94
62510;BME280;48558;48.242;11.654;2022-08-03T11:02:20;96301.25;;;32.41;32.98
62510;BME280;48558;48.242;11.654;2022-08-03T11:07:25;96292.16;;;32.33;33.95
62510;BME280;48558;48.242;11.654;2022-08-03T11:12:32;96297.84;;;32.91;30.99
62510;BME280;48558;48.242;11.654;2022-08-03T11:17:35;96296.38;;;32.21;29.62
62510;BME280;48558;48.242;11.654;2022-08-03T11:22:58;96289.41;;;31.02;32.05
62510;BME280;48558;48.242;11.654;2022-08-03T11:28:33;96290.66;;;33.52;30.88
62510;BME280;48558;48.242;11.654;2022-08-03T11:33:36;96289.78;;;33.50;32.89
62510;BME280;48558;48.242;11.654;2022-08-03T11:39:12;96300.16;;;32.69;32.48
62510;BME280;48558;48.242;11.654;2022-08-03T11:44:39;96283.22;;;31.71;30.19
62510;BME280;48558;48.242;11.654;2022-08-03T11:49:53;96292.75;;;32.09;28.64
62510;BME280;48558;48.242;11.654;2022-08-03T11:54:56;96284.16;;;32.09;32.54
62510;BME280;48558;48.242;11.654;2022-08-03T12:00:00;96280.44;;;32.64;28.97
62510;BME280;48558;48.242;11.654;2022-08-03T12:05:06;96274.19;;;32.33;31.30
62510;BME280;48558;48.242;11.654;2022-08-03T12:10:13;96268.09;;;33.10;29.21
62510;BME280;48558;48.242;11.654;2022-08-03T12:15:32;96265.47;;;34.28;29.00
62510;BME280;48558;48.242;11.654;2022-08-03T12:20:37;96255.50;;;33.03;31.93
62510;BME280;48558;48.242;11.654;2022-08-03T12:25:42;96249.59;;;33.24;30.41
62510;BME280;48558;48.242;11.654;2022-08-03T12:30:47;96241.19;;;33.54;32.06
62510;BME280;48558;48.242;11.654;2022-08-03T12:36:08;96249.72;;;32.66;29.41
62510;BME280;48558;48.242;11.654;2022-08-03T12:41:12;96252.88;;;32.13;28.73
62510;BME280;48558;48.242;11.654;2022-08-03T12:46:18;96243.13;;;33.12;31.55
62510;BME280;48558;48.242;11.654;2022-08-03T12:51:21;96238.69;;;33.48;31.29
62510;BME280;48558;48.242;11.654;2022-08-03T12:56:24;96244.53;;;33.62;26.45
62510;BME280;48558;48.242;11.654;2022-08-03T13:01:35;96242.06;;;33.31;29.13
62510;BME280;48558;48.242;11.654;2022-08-03T13:07:07;96232.09;;;33.20;28.76
62510;BME280;48558;48.242;11.654;2022-08-03T13:12:17;96229.69;;;32.32;33.46
62510;BME280;48558;48.242;11.654;2022-08-03T13:17:22;96235.16;;;31.81;29.99
62510;BME280;48558;48.242;11.654;2022-08-03T13:22:26;96234.13;;;32.12;31.61
62510;BME280;48558;48.242;11.654;2022-08-03T13:27:38;96228.53;;;31.90;32.56
62510;BME280;48558;48.242;11.654;2022-08-03T13:33:26;96190.75;;;31.71;29.90
62510;BME280;48558;48.242;11.654;2022-08-03T13:39:32;96203.75;;;32.07;28.53
62510;BME280;48558;48.242;11.654;2022-08-03T13:44:55;96218.69;;;32.28;30.70
62510;BME280;48558;48.242;11.654;2022-08-03T13:50:00;96212.34;;;32.07;29.04
62510;BME280;48558;48.242;11.654;2022-08-03T13:55:06;96202.59;;;32.35;31.67
62510;BME280;48558;48.242;11.654;2022-08-03T14:00:14;96198.88;;;31.86;30.58
62510;BME280;48558;48.242;11.654;2022-08-03T14:05:30;96181.38;;;32.40;30.17
62510;BME280;48558;48.242;11.654;2022-08-03T14:10:39;96195.81;;;31.49;30.92
62510;BME280;48558;48.242;11.654;2022-08-03T14:15:43;96183.91;;;31.64;34.10
62510;BME280;48558;48.242;11.654;2022-08-03T14:20:51;96178.09;;;31.29;28.87
62510;BME280;48558;48.242;11.654;2022-08-03T14:25:58;96170.56;;;32.38;32.32
62510;BME280;48558;48.242;11.654;2022-08-03T14:31:02;96174.16;;;32.39;33.36
62510;BME280;48558;48.242;11.654;2022-08-03T14:36:25;96168.00;;;32.56;31.29
62510;BME280;48558;48.242;11.654;2022-08-03T14:41:29;96168.97;;;32.60;28.26
62510;BME280;48558;48.242;11.654;2022-08-03T14:46:35;96165.72;;;31.83;27.81
62510;BME280;48558;48.242;11.654;2022-08-03T14:51:37;96164.19;;;31.59;28.27
62510;BME280;48558;48.242;11.654;2022-08-03T14:56:56;96165.47;;;31.67;29.04
62510;BME280;48558;48.242;11.654;2022-08-03T15:02:00;96163.31;;;32.02;27.90
62510;BME280;48558;48.242;11.654;2022-08-03T15:07:10;96146.63;;;32.22;28.52
62510;BME280;48558;48.242;11.654;2022-08-03T15:12:14;96144.03;;;32.15;29.03
62510;BME280;48558;48.242;11.654;2022-08-03T15:17:17;96136.16;;;32.15;27.78
62510;BME280;48558;48.242;11.654;2022-08-03T15:22:21;96148.72;;;31.41;28.65
62510;BME280;48558;48.242;11.654;2022-08-03T15:27:26;96136.28;;;31.48;30.10
62510;BME280;48558;48.242;11.654;2022-08-03T15:32:29;96139.88;;;31.25;28.99
62510;BME280;48558;48.242;11.654;2022-08-03T15:37:32;96142.09;;;31.26;29.16
62510;BME280;48558;48.242;11.654;2022-08-03T15:42:36;96135.50;;;31.24;30.76
62510;BME280;48558;48.242;11.654;2022-08-03T15:47:42;96136.84;;;30.79;31.17
62510;BME280;48558;48.242;11.654;2022-08-03T15:52:46;96127.59;;;30.69;29.35
62510;BME280;48558;48.242;11.654;2022-08-03T15:57:49;96137.38;;;30.87;31.74
62510;BME280;48558;48.242;11.654;2022-08-03T16:03:13;96125.59;;;30.59;28.77
62510;BME280;48558;48.242;11.654;2022-08-03T16:08:16;96123.28;;;30.25;31.16
62510;BME280;48558;48.242;11.654;2022-08-03T16:13:19;96127.75;;;30.07;31.18
62510;BME280;48558;48.242;11.654;2022-08-03T16:18:43;96127.47;;;29.72;32.20
62510;BME280;48558;48.242;11.654;2022-08-03T16:23:49;96132.13;;;29.37;32.60
62510;BME280;48558;48.242;11.654;2022-08-03T16:28:52;96123.56;;;29.37;31.62
62510;BME280;48558;48.242;11.654;2022-08-03T16:33:55;96120.78;;;29.08;32.16
62510;BME280;48558;48.242;11.654;2022-08-03T16:39:00;96110.31;;;29.01;32.26
62510;BME280;48558;48.242;11.654;2022-08-03T16:44:03;96112.56;;;28.84;30.82
62510;BME280;48558;48.242;11.654;2022-08-03T16:49:11;96116.66;;;28.62;31.81
62510;BME280;48558;48.242;11.654;2022-08-03T16:54:34;96115.31;;;28.53;31.99
62510;BME280;48558;48.242;11.654;2022-08-03T16:59:38;96120.25;;;28.33;32.71
62510;BME280;48558;48.242;11.654;2022-08-03T17:04:41;96113.53;;;28.48;33.06
62510;BME280;48558;48.242;11.654;2022-08-03T17:09:46;96111.28;;;28.46;33.07
62510;BME280;48558;48.242;11.654;2022-08-03T17:14:50;96110.94;;;28.23;34.21
62510;BME280;48558;48.242;11.654;2022-08-03T17:19:55;96110.19;;;28.04;32.87
62510;BME280;48558;48.242;11.654;2022-08-03T17:25:06;96128.34;;;28.08;33.46
62510;BME280;48558;48.242;11.654;2022-08-03T17:30:26;96132.41;;;27.69;34.78
62510;BME280;48558;48.242;11.654;2022-08-03T17:35:50;96128.66;;;27.57;34.03
62510;BME280;48558;48.242;11.654;2022-08-03T17:41:00;96129.47;;;27.40;34.80
62510;BME280;48558;48.242;11.654;2022-08-03T17:46:26;96127.63;;;28.27;34.44
62510;BME280;48558;48.242;11.654;2022-08-03T17:51:33;96135.94;;;27.41;36.24
62510;BME280;48558;48.242;11.654;2022-08-03T18:02:48;96140.94;;;25.94;38.63
62510;BME280;48558;48.242;11.654;2022-08-03T18:08:22;96151.47;;;25.59;40.71
62510;BME280;48558;48.242;11.654;2022-08-03T18:13:30;96152.31;;;25.20;41.97
62510;BME280;48558;48.242;11.654;2022-08-03T18:18:42;96160.59;;;24.93;44.42
62510;BME280;48558;48.242;11.654;2022-08-03T18:23:50;96157.34;;;24.57;44.29
62510;BME280;48558;48.242;11.654;2022-08-03T18:29:18;96157.66;;;24.21;48.93
62510;BME280;48558;48.242;11.654;2022-08-03T18:34:28;96156.56;;;23.94;50.80
62510;BME280;48558;48.242;11.654;2022-08-03T18:39:37;96158.84;;;23.57;54.25
62510;BME280;48558;48.242;11.654;2022-08-03T18:44:54;96154.66;;;23.21;53.50
62510;BME280;48558;48.242;11.654;2022-08-03T18:56:11;96168.84;;;22.70;61.91
62510;BME280;48558;48.242;11.654;2022-08-03T19:01:31;96172.47;;;22.42;64.65
62510;BME280;48558;48.242;11.654;2022-08-03T19:07:04;96179.59;;;22.07;66.37
62510;BME280;48558;48.242;11.654;2022-08-03T19:12:16;96182.06;;;21.83;70.30
62510;BME280;48558;48.242;11.654;2022-08-03T19:17:45;96189.41;;;21.57;72.37
62510;BME280;48558;48.242;11.654;2022-08-03T19:23:39;96183.22;;;21.38;71.75
62510;BME280;48558;48.242;11.654;2022-08-03T19:28:46;96195.25;;;21.39;71.19
62510;BME280;48558;48.242;11.654;2022-08-03T19:34:04;96195.81;;;21.17;75.59
62510;BME280;48558;48.242;11.654;2022-08-03T19:39:09;96194.75;;;21.07;73.25
62510;BME280;48558;48.242;11.654;2022-08-03T19:44:26;96188.34;;;21.06;73.93
62510;BME280;48558;48.242;11.654;2022-08-03T19:49:37;96201.06;;;21.00;69.48
62510;BME280;48558;48.242;11.654;2022-08-03T20:00:54;96193.47;;;20.94;68.64
62510;BME280;48558;48.242;11.654;2022-08-03T20:06:46;96191.13;;;20.85;71.95
62510;BME280;48558;48.242;11.654;2022-08-03T20:11:51;96187.13;;;20.81;69.30
62510;BME280;48558;48.242;11.654;2022-08-03T20:16:56;96205.47;;;20.74;72.20
62510;BME280;48558;48.242;11.654;2022-08-03T20:22:00;96195.09;;;20.56;69.24
62510;BME280;48558;48.242;11.654;2022-08-03T20:27:29;96199.88;;;20.48;71.85
62510;BME280;48558;48.242;11.654;2022-08-03T20:32:57;96192.25;;;20.56;71.71
62510;BME280;48558;48.242;11.654;2022-08-03T20:38:25;96195.00;;;20.49;71.76
62510;BME280;48558;48.242;11.654;2022-08-03T20:43:29;96192.75;;;20.34;71.51
62510;BME280;48558;48.242;11.654;2022-08-03T20:48:34;96195.16;;;20.17;77.13
62510;BME280;48558;48.242;11.654;2022-08-03T20:53:38;96189.06;;;20.00;78.63
62510;BME280;48558;48.242;11.654;2022-08-03T20:59:04;96191.94;;;19.81;81.09
62510;BME280;48558;48.242;11.654;2022-08-03T21:04:16;96196.16;;;19.62;81.74
62510;BME280;48558;48.242;11.654;2022-08-03T21:09:24;96187.38;;;19.52;85.78
62510;BME280;48558;48.242;11.654;2022-08-03T21:14:42;96188.41;;;19.36;84.86
62510;BME280;48558;48.242;11.654;2022-08-03T21:19:53;96189.91;;;19.24;86.96
62510;BME280;48558;48.242;11.654;2022-08-03T21:25:00;96185.72;;;19.12;88.61
62510;BME280;48558;48.242;11.654;2022-08-03T21:30:06;96192.38;;;19.14;86.97
62510;BME280;48558;48.242;11.654;2022-08-03T21:35:11;96178.69;;;19.05;87.15
62510;BME280;48558;48.242;11.654;2022-08-03T21:40:15;96169.59;;;18.99;88.15
62510;BME280;48558;48.242;11.654;2022-08-03T21:45:19;96180.75;;;18.86;92.92
62510;BME280;48558;48.242;11.654;2022-08-03T21:50:23;96170.09;;;18.66;98.67
62510;BME280;48558;48.242;11.654;2022-08-03T21:55:27;96178.16;;;18.56;98.89
62510;BME280;48558;48.242;11.654;2022-08-03T22:00:33;96176.31;;;18.40;100.00
62510;BME280;48558;48.242;11.654;2022-08-03T22:05:37;96176.81;;;18.20;100.00
62510;BME280;48558;48.242;11.654;2022-08-03T22:10:46;96182.78;;;18.11;100.00
62510;BME280;48558;48.242;11.654;2022-08-03T22:15:52;96177.25;;;18.05;100.00
62510;BME280;48558;48.242;11.654;2022-08-03T22:20:56;96176.09;;;17.95;100.00
62510;BME280;48558;48.242;11.654;2022-08-03T22:26:04;96181.44;;;17.93;100.00
62510;BME280;48558;48.242;11.654;2022-08-03T22:31:09;96176.09;;;17.71;100.00
62510;BME280;48558;48.242;11.654;2022-08-03T22:36:33;96182.63;;;17.55;100.00
62510;BME280;48558;48.242;11.654;2022-08-03T22:41:36;96177.16;;;17.38;100.00
62510;BME280;48558;48.242;11.654;2022-08-03T22:46:41;96175.41;;;17.35;100.00
62510;BME280;48558;48.242;11.654;2022-08-03T22:51:44;96167.88;;;17.25;100.00
62510;BME280;48558;48.242;11.654;2022-08-03T22:56:49;96176.75;;;17.29;100.00
62510;BME280;48558;48.242;11.654;2022-08-03T23:08:37;96144.25;;;16.85;100.00
62510;BME280;48558;48.242;11.654;2022-08-03T23:20:27;96180.41;;;16.83;100.00
62510;BME280;48558;48.242;11.654;2022-08-03T23:26:42;96160.94;;;16.66;100.00
62510;BME280;48558;48.242;11.654;2022-08-03T23:32:44;96145.25;;;16.47;100.00
62510;BME280;48558;48.242;11.654;2022-08-03T23:38:18;96144.38;;;16.28;100.00
62510;BME280;48558;48.242;11.654;2022-08-03T23:44:03;96182.19;;;16.40;100.00
62510;BME280;48558;48.242;11.654;2022-08-03T23:50:26;96171.50;;;16.44;100.00
